Aransas Pass, TX (78336)

12:24 PM CDT on September 04, 2015 (GMT -0500)
Gas Lite Village | | Change Station
CLOSE
Current Station
Personal Weather Station
Location: Aransas Pass, TX
Elevation: 18 ft
Nearby Weather Stations

Elev 18 ft 27.92 °N, 97.16 °W | Updated 4 seconds ago

Mostly Cloudy
Mostly Cloudy
88.3 °F
Feels Like 107 °F
N
0.4
Wind Variable Wind from SE
Gusts 5.8 mph

Today
High -- | Low -- °F
--% Chance of Precip.
Yesterday
High -- | Low -- °F
Precip. -- in
7:08 AM 7:46 PM
Waning Gibbous, 57% visible
Pressure 29.93 in
Visibility 10.0 miles
Clouds Scattered Clouds 2400 ft
Mostly Cloudy 3000 ft
Mostly Cloudy 3700 ft
Heat Index 107 °F
Dew Point 81 °F
Humidity 79%
Rainfall 0.00 in
Snow Depth Not available.
UV 5 out of 12
Pollen 7.80 out of 12
Air Quality Not available.
Flu Activity Not available.
METAR KTFP 041715Z AUTO 14013G17KT 10SM SCT024 BKN030 BKN037 32/25 A2993 RMK AO2 T03240245
Pressure 29.93 in
Visibility 10.0 miles
Clouds Scattered Clouds 2400 ft
Mostly Cloudy 3000 ft
Mostly Cloudy 3700 ft
Heat Index 107 °F
Dew Point 81 °F
Humidity 79%
Rainfall 0.00 in
Snow Depth Not available.
UV 5 out of 12
Pollen 7.80 out of 12
Air Quality Not available.
Flu Activity Not available.
METAR KTFP 041715Z AUTO 14013G17KT 10SM SCT024 BKN030 BKN037 32/25 A2993 RMK AO2 T03240245
Nowcast | as of 12:07 PM CDT on September 4, 2015

Through 230 PM CDT...isolated to scattered showers...with possible thunderstorms...will continue to develop and move north around 25 mph over portions of south Texas and the Gulf waters. Most of the rainfall will occur east of an Alice to George West line through 2 PM. Brief periods of moderate to heavy rainfall...along with gusty winds will be the main impacts of the showers. Rainfall amounts will be 1/4 of an inch or less for most areas...although a thunderstorm could produce amounts between 1/4 and 1/2 inch.

×

10-Day Weather Forecast

×

Almanac

Astronomy

Sep. 04, 2015 Rise Set
Actual Time
Civil Twilight
Nautical Twilight
Astronomical Twilight
Moon
Length of Visible Light
Length of Day
Tomorrow will be .
, % of the Moon is Illuminated

Today's Extremes

State Highs State Lows

Community

WunderPhotos

Upload Photos

1,852,237 photos uploaded!

WunderBlogs® & News

Nearby

Air Quality

  Air Quality AQ Index Pollutant
Not available.

Snow Depth

Station Depth Elevation

Earthquake Activity

City Distance Mag. Time & Date
Minimum magnitude displayed is 2.5.

Coastal Water Temperatures

Place Temperature

Stations

Nearby Weather Stations

Station Location Temp. Windchill Dew Point Humidity Wind Precip. Elev Updated Type